sensor_id;sensor_type;location;lat;lon;timestamp;P1;durP1;ratioP1;P2;durP2;ratioP2
11211;SDS011;5663;50.864;12.096;2022-07-17T00:32:03;7.60;;;2.73;;
11211;SDS011;5663;50.864;12.096;2022-07-17T00:35:00;4.57;;;2.40;;
11211;SDS011;5663;50.864;12.096;2022-07-17T00:37:49;2.93;;;2.23;;
11211;SDS011;5663;50.864;12.096;2022-07-17T00:41:09;5.97;;;2.60;;
11211;SDS011;5663;50.864;12.096;2022-07-17T00:44:12;3.30;;;2.67;;
11211;SDS011;5663;50.864;12.096;2022-07-17T00:47:19;3.47;;;2.30;;
11211;SDS011;5663;50.864;12.096;2022-07-17T00:57:40;7.13;;;2.60;;
11211;SDS011;5663;50.864;12.096;2022-07-17T01:00:19;4.00;;;2.70;;
11211;SDS011;5663;50.864;12.096;2022-07-17T01:06:14;3.23;;;2.10;;
11211;SDS011;5663;50.864;12.096;2022-07-17T01:09:16;3.43;;;2.20;;
11211;SDS011;5663;50.864;12.096;2022-07-17T01:12:32;3.10;;;2.37;;
11211;SDS011;5663;50.864;12.096;2022-07-17T01:15:12;4.70;;;2.37;;
11211;SDS011;5663;50.864;12.096;2022-07-17T01:25:45;5.50;;;2.60;;
11211;SDS011;5663;50.864;12.096;2022-07-17T01:28:37;5.63;;;2.43;;
11211;SDS011;5663;50.864;12.096;2022-07-17T01:31:36;8.23;;;2.73;;
11211;SDS011;5663;50.864;12.096;2022-07-17T01:34:40;5.00;;;2.60;;
11211;SDS011;5663;50.864;12.096;2022-07-17T01:38:20;4.63;;;2.60;;
11211;SDS011;5663;50.864;12.096;2022-07-17T01:43:55;5.10;;;2.60;;
11211;SDS011;5663;50.864;12.096;2022-07-17T01:45:07;4.13;;;2.73;;
11211;SDS011;5663;50.864;12.096;2022-07-17T01:48:44;6.33;;;2.87;;
11211;SDS011;5663;50.864;12.096;2022-07-17T01:52:22;6.93;;;2.70;;
11211;SDS011;5663;50.864;12.096;2022-07-17T02:06:20;6.30;;;3.13;;
11211;SDS011;5663;50.864;12.096;2022-07-17T02:09:33;4.50;;;2.50;;
11211;SDS011;5663;50.864;12.096;2022-07-17T02:12:58;5.73;;;2.70;;
11211;SDS011;5663;50.864;12.096;2022-07-17T02:19:43;7.07;;;3.00;;
11211;SDS011;5663;50.864;12.096;2022-07-17T02:23:15;4.93;;;2.90;;
11211;SDS011;5663;50.864;12.096;2022-07-17T04:27:30;11.17;;;2.80;;
11211;SDS011;5663;50.864;12.096;2022-07-17T04:39:05;4.13;;;2.93;;
11211;SDS011;5663;50.864;12.096;2022-07-17T04:50:07;3.90;;;3.23;;
11211;SDS011;5663;50.864;12.096;2022-07-17T04:56:17;8.70;;;3.80;;
11211;SDS011;5663;50.864;12.096;2022-07-17T04:59:25;6.93;;;3.73;;
11211;SDS011;5663;50.864;12.096;2022-07-17T05:03:07;3.90;;;2.90;;
11211;SDS011;5663;50.864;12.096;2022-07-17T05:05:57;3.90;;;2.67;;
11211;SDS011;5663;50.864;12.096;2022-07-17T05:09:05;4.87;;;2.53;;
11211;SDS011;5663;50.864;12.096;2022-07-17T05:11:59;7.50;;;3.10;;
11211;SDS011;5663;50.864;12.096;2022-07-17T05:15:19;5.83;;;3.20;;
11211;SDS011;5663;50.864;12.096;2022-07-17T05:17:53;5.03;;;3.63;;
11211;SDS011;5663;50.864;12.096;2022-07-17T05:20:26;6.00;;;4.10;;
11211;SDS011;5663;50.864;12.096;2022-07-17T05:26:07;10.37;;;4.00;;
11211;SDS011;5663;50.864;12.096;2022-07-17T05:29:11;10.77;;;4.03;;
11211;SDS011;5663;50.864;12.096;2022-07-17T05:32:13;6.40;;;4.07;;
11211;SDS011;5663;50.864;12.096;2022-07-17T05:35:42;5.87;;;3.47;;
11211;SDS011;5663;50.864;12.096;2022-07-17T05:38:57;7.30;;;3.03;;
11211;SDS011;5663;50.864;12.096;2022-07-17T05:41:44;6.20;;;3.40;;
11211;SDS011;5663;50.864;12.096;2022-07-17T05:44:45;7.30;;;2.90;;
11211;SDS011;5663;50.864;12.096;2022-07-17T05:50:20;5.00;;;3.10;;
11211;SDS011;5663;50.864;12.096;2022-07-17T05:53:14;6.47;;;2.67;;
11211;SDS011;5663;50.864;12.096;2022-07-17T05:55:51;3.53;;;2.67;;
11211;SDS011;5663;50.864;12.096;2022-07-17T05:58:28;5.70;;;2.43;;
11211;SDS011;5663;50.864;12.096;2022-07-17T06:00:56;6.27;;;2.80;;
11211;SDS011;5663;50.864;12.096;2022-07-17T06:03:30;4.60;;;2.70;;
11211;SDS011;5663;50.864;12.096;2022-07-17T06:06:01;3.57;;;2.10;;
11211;SDS011;5663;50.864;12.096;2022-07-17T06:08:30;4.73;;;2.03;;
11211;SDS011;5663;50.864;12.096;2022-07-17T06:11:02;4.97;;;2.40;;
11211;SDS011;5663;50.864;12.096;2022-07-17T06:13:38;6.43;;;2.57;;
11211;SDS011;5663;50.864;12.096;2022-07-17T06:16:29;3.97;;;1.90;;
11211;SDS011;5663;50.864;12.096;2022-07-17T06:19:04;4.60;;;2.07;;
11211;SDS011;5663;50.864;12.096;2022-07-17T06:21:33;3.63;;;1.87;;
11211;SDS011;5663;50.864;12.096;2022-07-17T06:24:04;6.63;;;2.33;;
11211;SDS011;5663;50.864;12.096;2022-07-17T06:26:37;5.60;;;2.33;;
11211;SDS011;5663;50.864;12.096;2022-07-17T06:29:14;6.27;;;2.10;;
11211;SDS011;5663;50.864;12.096;2022-07-17T06:31:45;3.37;;;1.90;;
11211;SDS011;5663;50.864;12.096;2022-07-17T06:34:14;3.80;;;1.73;;
11211;SDS011;5663;50.864;12.096;2022-07-17T06:36:48;4.17;;;1.90;;
11211;SDS011;5663;50.864;12.096;2022-07-17T06:39:20;5.60;;;1.70;;
11211;SDS011;5663;50.864;12.096;2022-07-17T06:41:50;3.70;;;1.67;;
11211;SDS011;5663;50.864;12.096;2022-07-17T06:44:25;7.23;;;2.03;;
11211;SDS011;5663;50.864;12.096;2022-07-17T06:47:07;3.63;;;1.60;;
11211;SDS011;5663;50.864;12.096;2022-07-17T06:49:40;4.07;;;1.60;;
11211;SDS011;5663;50.864;12.096;2022-07-17T06:52:21;3.83;;;1.50;;
11211;SDS011;5663;50.864;12.096;2022-07-17T06:54:56;4.40;;;1.80;;
11211;SDS011;5663;50.864;12.096;2022-07-17T06:57:28;3.90;;;1.60;;
11211;SDS011;5663;50.864;12.096;2022-07-17T07:00:07;3.70;;;1.63;;
11211;SDS011;5663;50.864;12.096;2022-07-17T07:02:36;4.17;;;1.90;;
11211;SDS011;5663;50.864;12.096;2022-07-17T07:05:05;4.37;;;1.70;;
11211;SDS011;5663;50.864;12.096;2022-07-17T07:07:34;4.90;;;1.70;;
11211;SDS011;5663;50.864;12.096;2022-07-17T07:10:27;4.80;;;1.77;;
11211;SDS011;5663;50.864;12.096;2022-07-17T07:13:06;5.17;;;1.60;;
11211;SDS011;5663;50.864;12.096;2022-07-17T07:15:38;7.17;;;1.63;;
11211;SDS011;5663;50.864;12.096;2022-07-17T07:18:06;4.70;;;1.63;;
11211;SDS011;5663;50.864;12.096;2022-07-17T07:20:35;3.60;;;1.60;;
11211;SDS011;5663;50.864;12.096;2022-07-17T07:23:02;4.93;;;1.57;;
11211;SDS011;5663;50.864;12.096;2022-07-17T07:25:30;2.47;;;1.23;;
11211;SDS011;5663;50.864;12.096;2022-07-17T07:27:59;5.10;;;1.80;;
11211;SDS011;5663;50.864;12.096;2022-07-17T07:31:15;5.23;;;1.43;;
11211;SDS011;5663;50.864;12.096;2022-07-17T07:34:11;2.47;;;1.17;;
11211;SDS011;5663;50.864;12.096;2022-07-17T07:36:40;3.77;;;1.60;;
11211;SDS011;5663;50.864;12.096;2022-07-17T07:39:35;4.57;;;1.60;;
11211;SDS011;5663;50.864;12.096;2022-07-17T07:44:47;2.87;;;1.30;;
11211;SDS011;5663;50.864;12.096;2022-07-17T07:47:25;6.07;;;1.50;;
11211;SDS011;5663;50.864;12.096;2022-07-17T07:50:09;3.97;;;1.50;;
11211;SDS011;5663;50.864;12.096;2022-07-17T07:53:27;3.13;;;1.37;;
11211;SDS011;5663;50.864;12.096;2022-07-17T07:55:56;5.07;;;1.37;;
11211;SDS011;5663;50.864;12.096;2022-07-17T07:58:24;3.70;;;1.40;;
11211;SDS011;5663;50.864;12.096;2022-07-17T08:00:59;4.93;;;1.57;;
11211;SDS011;5663;50.864;12.096;2022-07-17T08:03:29;4.87;;;1.50;;
11211;SDS011;5663;50.864;12.096;2022-07-17T08:05:58;3.43;;;1.30;;
11211;SDS011;5663;50.864;12.096;2022-07-17T08:08:28;5.10;;;1.80;;
11211;SDS011;5663;50.864;12.096;2022-07-17T08:12:34;2.73;;;1.40;;
11211;SDS011;5663;50.864;12.096;2022-07-17T08:14:47;2.87;;;1.37;;
11211;SDS011;5663;50.864;12.096;2022-07-17T08:17:15;4.67;;;1.83;;
11211;SDS011;5663;50.864;12.096;2022-07-17T08:19:52;4.20;;;1.50;;
11211;SDS011;5663;50.864;12.096;2022-07-17T08:22:21;6.23;;;1.70;;
11211;SDS011;5663;50.864;12.096;2022-07-17T08:24:52;4.00;;;1.47;;
11211;SDS011;5663;50.864;12.096;2022-07-17T08:27:30;2.30;;;1.40;;
11211;SDS011;5663;50.864;12.096;2022-07-17T08:30:12;4.13;;;1.60;;
11211;SDS011;5663;50.864;12.096;2022-07-17T08:32:50;6.87;;;1.70;;
11211;SDS011;5663;50.864;12.096;2022-07-17T08:35:42;3.23;;;1.20;;
11211;SDS011;5663;50.864;12.096;2022-07-17T08:38:13;5.63;;;2.00;;
11211;SDS011;5663;50.864;12.096;2022-07-17T08:40:44;4.77;;;1.53;;
11211;SDS011;5663;50.864;12.096;2022-07-17T08:43:15;6.33;;;1.50;;
11211;SDS011;5663;50.864;12.096;2022-07-17T08:45:50;6.50;;;1.63;;
11211;SDS011;5663;50.864;12.096;2022-07-17T08:48:22;2.83;;;1.60;;
11211;SDS011;5663;50.864;12.096;2022-07-17T08:50:58;4.27;;;1.37;;
11211;SDS011;5663;50.864;12.096;2022-07-17T08:53:33;7.37;;;1.73;;
11211;SDS011;5663;50.864;12.096;2022-07-17T08:56:03;3.73;;;1.43;;
11211;SDS011;5663;50.864;12.096;2022-07-17T08:58:39;5.77;;;1.57;;
11211;SDS011;5663;50.864;12.096;2022-07-17T09:01:08;5.33;;;1.80;;
11211;SDS011;5663;50.864;12.096;2022-07-17T09:03:52;7.10;;;1.70;;
11211;SDS011;5663;50.864;12.096;2022-07-17T09:06:35;3.13;;;1.40;;
11211;SDS011;5663;50.864;12.096;2022-07-17T09:09:05;4.67;;;1.40;;
11211;SDS011;5663;50.864;12.096;2022-07-17T09:11:45;4.37;;;1.70;;
11211;SDS011;5663;50.864;12.096;2022-07-17T09:14:38;3.50;;;1.40;;
11211;SDS011;5663;50.864;12.096;2022-07-17T09:17:46;2.63;;;1.42;;
11211;SDS011;5663;50.864;12.096;2022-07-17T09:20:15;3.33;;;1.60;;
11211;SDS011;5663;50.864;12.096;2022-07-17T09:22:56;4.82;;;1.35;;
11211;SDS011;5663;50.864;12.096;2022-07-17T09:25:35;5.38;;;1.58;;
11211;SDS011;5663;50.864;12.096;2022-07-17T09:28:21;3.75;;;1.48;;
11211;SDS011;5663;50.864;12.096;2022-07-17T09:31:11;5.32;;;1.52;;
11211;SDS011;5663;50.864;12.096;2022-07-17T09:33:41;7.93;;;1.65;;
11211;SDS011;5663;50.864;12.096;2022-07-17T09:36:20;3.72;;;1.60;;
11211;SDS011;5663;50.864;12.096;2022-07-17T09:39:15;4.13;;;1.63;;
11211;SDS011;5663;50.864;12.096;2022-07-17T09:41:43;3.40;;;1.30;;
11211;SDS011;5663;50.864;12.096;2022-07-17T09:44:11;4.28;;;1.50;;
11211;SDS011;5663;50.864;12.096;2022-07-17T09:46:41;4.20;;;1.60;;
11211;SDS011;5663;50.864;12.096;2022-07-17T09:49:10;6.47;;;1.50;;
11211;SDS011;5663;50.864;12.096;2022-07-17T09:51:47;3.90;;;1.42;;
11211;SDS011;5663;50.864;12.096;2022-07-17T09:54:23;1.80;;;1.20;;
11211;SDS011;5663;50.864;12.096;2022-07-17T09:56:56;4.88;;;1.50;;
11211;SDS011;5663;50.864;12.096;2022-07-17T09:59:34;4.18;;;1.40;;
11211;SDS011;5663;50.864;12.096;2022-07-17T10:02:06;4.13;;;1.60;;
11211;SDS011;5663;50.864;12.096;2022-07-17T10:04:35;4.50;;;1.70;;
11211;SDS011;5663;50.864;12.096;2022-07-17T10:07:05;5.57;;;1.67;;
11211;SDS011;5663;50.864;12.096;2022-07-17T10:09:36;3.35;;;1.48;;
11211;SDS011;5663;50.864;12.096;2022-07-17T10:12:05;2.55;;;1.38;;
11211;SDS011;5663;50.864;12.096;2022-07-17T10:14:33;4.28;;;1.23;;
11211;SDS011;5663;50.864;12.096;2022-07-17T10:17:07;3.05;;;1.40;;
11211;SDS011;5663;50.864;12.096;2022-07-17T10:19:46;3.50;;;1.42;;
11211;SDS011;5663;50.864;12.096;2022-07-17T10:22:18;4.03;;;1.30;;
11211;SDS011;5663;50.864;12.096;2022-07-17T10:25:12;5.00;;;1.70;;
11211;SDS011;5663;50.864;12.096;2022-07-17T10:27:46;4.30;;;1.30;;
11211;SDS011;5663;50.864;12.096;2022-07-17T10:30:20;2.42;;;1.27;;
11211;SDS011;5663;50.864;12.096;2022-07-17T10:32:56;2.90;;;1.45;;
11211;SDS011;5663;50.864;12.096;2022-07-17T10:35:42;3.50;;;1.77;;
11211;SDS011;5663;50.864;12.096;2022-07-17T10:38:13;3.47;;;1.65;;
11211;SDS011;5663;50.864;12.096;2022-07-17T10:40:46;2.85;;;1.42;;
11211;SDS011;5663;50.864;12.096;2022-07-17T10:43:16;4.30;;;1.48;;
11211;SDS011;5663;50.864;12.096;2022-07-17T10:45:45;3.97;;;1.45;;
11211;SDS011;5663;50.864;12.096;2022-07-17T10:48:17;4.32;;;1.50;;
11211;SDS011;5663;50.864;12.096;2022-07-17T10:50:48;4.05;;;1.60;;
11211;SDS011;5663;50.864;12.096;2022-07-17T10:53:18;2.60;;;1.50;;
11211;SDS011;5663;50.864;12.096;2022-07-17T10:55:56;3.13;;;1.25;;
11211;SDS011;5663;50.864;12.096;2022-07-17T10:58:27;2.53;;;1.20;;
11211;SDS011;5663;50.864;12.096;2022-07-17T11:00:59;3.33;;;1.50;;
11211;SDS011;5663;50.864;12.096;2022-07-17T11:03:39;4.57;;;1.63;;
11211;SDS011;5663;50.864;12.096;2022-07-17T11:06:15;2.80;;;1.35;;
11211;SDS011;5663;50.864;12.096;2022-07-17T11:08:46;2.35;;;1.50;;
11211;SDS011;5663;50.864;12.096;2022-07-17T11:11:37;2.28;;;1.20;;
11211;SDS011;5663;50.864;12.096;2022-07-17T11:14:19;3.35;;;1.20;;
11211;SDS011;5663;50.864;12.096;2022-07-17T11:17:01;2.00;;;1.40;;
11211;SDS011;5663;50.864;12.096;2022-07-17T11:19:30;2.20;;;1.35;;
11211;SDS011;5663;50.864;12.096;2022-07-17T11:22:00;1.88;;;1.15;;
11211;SDS011;5663;50.864;12.096;2022-07-17T11:24:35;3.90;;;1.20;;
11211;SDS011;5663;50.864;12.096;2022-07-17T11:27:05;3.50;;;1.48;;
11211;SDS011;5663;50.864;12.096;2022-07-17T11:29:35;6.32;;;1.33;;
11211;SDS011;5663;50.864;12.096;2022-07-17T11:32:04;2.55;;;1.25;;
11211;SDS011;5663;50.864;12.096;2022-07-17T11:34:32;3.05;;;1.60;;
11211;SDS011;5663;50.864;12.096;2022-07-17T11:37:05;3.55;;;1.60;;
11211;SDS011;5663;50.864;12.096;2022-07-17T11:39:38;3.78;;;1.30;;
11211;SDS011;5663;50.864;12.096;2022-07-17T11:42:28;3.70;;;1.30;;
11211;SDS011;5663;50.864;12.096;2022-07-17T11:44:59;2.80;;;1.20;;
11211;SDS011;5663;50.864;12.096;2022-07-17T11:47:31;2.45;;;1.48;;
11211;SDS011;5663;50.864;12.096;2022-07-17T11:50:31;1.58;;;1.05;;
11211;SDS011;5663;50.864;12.096;2022-07-17T11:53:00;4.93;;;1.20;;
11211;SDS011;5663;50.864;12.096;2022-07-17T11:55:34;4.03;;;1.40;;
11211;SDS011;5663;50.864;12.096;2022-07-17T11:58:05;2.92;;;1.30;;
11211;SDS011;5663;50.864;12.096;2022-07-17T12:00:34;2.65;;;1.20;;
11211;SDS011;5663;50.864;12.096;2022-07-17T12:03:03;6.32;;;1.52;;
11211;SDS011;5663;50.864;12.096;2022-07-17T12:05:34;3.45;;;1.38;;
11211;SDS011;5663;50.864;12.096;2022-07-17T12:08:07;7.03;;;1.80;;
11211;SDS011;5663;50.864;12.096;2022-07-17T12:10:35;2.35;;;1.50;;
11211;SDS011;5663;50.864;12.096;2022-07-17T12:13:45;3.60;;;1.42;;
11211;SDS011;5663;50.864;12.096;2022-07-17T12:16:21;1.52;;;1.15;;
11211;SDS011;5663;50.864;12.096;2022-07-17T12:18:56;3.10;;;1.35;;
11211;SDS011;5663;50.864;12.096;2022-07-17T12:21:45;2.78;;;1.58;;
11211;SDS011;5663;50.864;12.096;2022-07-17T12:24:49;2.22;;;1.30;;
11211;SDS011;5663;50.864;12.096;2022-07-17T12:27:41;2.65;;;1.20;;
11211;SDS011;5663;50.864;12.096;2022-07-17T12:30:13;1.85;;;1.30;;
11211;SDS011;5663;50.864;12.096;2022-07-17T12:32:41;3.22;;;1.10;;
11211;SDS011;5663;50.864;12.096;2022-07-17T12:35:10;1.92;;;1.00;;
11211;SDS011;5663;50.864;12.096;2022-07-17T12:37:38;2.72;;;1.30;;
11211;SDS011;5663;50.864;12.096;2022-07-17T12:40:07;4.50;;;1.63;;
11211;SDS011;5663;50.864;12.096;2022-07-17T12:42:36;4.13;;;1.52;;
11211;SDS011;5663;50.864;12.096;2022-07-17T12:45:05;2.17;;;1.30;;
11211;SDS011;5663;50.864;12.096;2022-07-17T12:47:35;3.03;;;1.40;;
11211;SDS011;5663;50.864;12.096;2022-07-17T12:53:45;2.85;;;1.30;;
11211;SDS011;5663;50.864;12.096;2022-07-17T12:56:19;3.42;;;1.40;;
11211;SDS011;5663;50.864;12.096;2022-07-17T12:58:47;3.70;;;1.30;;
11211;SDS011;5663;50.864;12.096;2022-07-17T13:01:15;4.07;;;1.25;;
11211;SDS011;5663;50.864;12.096;2022-07-17T13:03:45;2.78;;;1.50;;
11211;SDS011;5663;50.864;12.096;2022-07-17T13:06:17;3.88;;;1.30;;
11211;SDS011;5663;50.864;12.096;2022-07-17T13:08:49;2.30;;;1.13;;
11211;SDS011;5663;50.864;12.096;2022-07-17T13:11:18;3.13;;;1.48;;
11211;SDS011;5663;50.864;12.096;2022-07-17T13:14:06;3.30;;;1.23;;
11211;SDS011;5663;50.864;12.096;2022-07-17T13:16:38;8.65;;;1.65;;
11211;SDS011;5663;50.864;12.096;2022-07-17T13:19:09;2.72;;;1.20;;
11211;SDS011;5663;50.864;12.096;2022-07-17T13:21:40;7.22;;;1.58;;
11211;SDS011;5663;50.864;12.096;2022-07-17T13:24:07;4.90;;;1.20;;
11211;SDS011;5663;50.864;12.096;2022-07-17T13:26:35;6.40;;;1.35;;
11211;SDS011;5663;50.864;12.096;2022-07-17T13:29:18;2.88;;;1.50;;
11211;SDS011;5663;50.864;12.096;2022-07-17T13:31:48;2.20;;;1.20;;
11211;SDS011;5663;50.864;12.096;2022-07-17T13:34:17;4.55;;;1.42;;
11211;SDS011;5663;50.864;12.096;2022-07-17T13:36:48;2.47;;;1.33;;
11211;SDS011;5663;50.864;12.096;2022-07-17T13:39:25;2.13;;;1.17;;
11211;SDS011;5663;50.864;12.096;2022-07-17T13:41:56;3.08;;;1.35;;
11211;SDS011;5663;50.864;12.096;2022-07-17T13:44:38;2.60;;;1.30;;
11211;SDS011;5663;50.864;12.096;2022-07-17T13:47:06;1.23;;;1.10;;
11211;SDS011;5663;50.864;12.096;2022-07-17T13:49:43;2.10;;;1.40;;
11211;SDS011;5663;50.864;12.096;2022-07-17T13:52:12;1.83;;;1.30;;
11211;SDS011;5663;50.864;12.096;2022-07-17T13:54:40;3.30;;;1.40;;
11211;SDS011;5663;50.864;12.096;2022-07-17T13:57:09;2.60;;;1.20;;
11211;SDS011;5663;50.864;12.096;2022-07-17T13:59:38;1.55;;;1.20;;
11211;SDS011;5663;50.864;12.096;2022-07-17T14:02:11;3.58;;;1.33;;
11211;SDS011;5663;50.864;12.096;2022-07-17T14:04:41;1.92;;;1.30;;
11211;SDS011;5663;50.864;12.096;2022-07-17T14:07:09;4.13;;;1.15;;
11211;SDS011;5663;50.864;12.096;2022-07-17T14:09:40;2.45;;;1.30;;
11211;SDS011;5663;50.864;12.096;2022-07-17T14:12:20;7.75;;;1.67;;
11211;SDS011;5663;50.864;12.096;2022-07-17T14:14:50;2.90;;;1.08;;
11211;SDS011;5663;50.864;12.096;2022-07-17T14:17:21;2.30;;;1.27;;
11211;SDS011;5663;50.864;12.096;2022-07-17T14:19:51;2.17;;;1.25;;
11211;SDS011;5663;50.864;12.096;2022-07-17T14:22:19;2.88;;;1.10;;
11211;SDS011;5663;50.864;12.096;2022-07-17T14:24:48;3.25;;;1.23;;
11211;SDS011;5663;50.864;12.096;2022-07-17T14:27:19;1.75;;;1.05;;
11211;SDS011;5663;50.864;12.096;2022-07-17T14:29:51;2.45;;;1.25;;
11211;SDS011;5663;50.864;12.096;2022-07-17T14:32:21;2.05;;;1.20;;
11211;SDS011;5663;50.864;12.096;2022-07-17T14:34:53;2.95;;;1.13;;
11211;SDS011;5663;50.864;12.096;2022-07-17T14:37:25;4.00;;;1.52;;
11211;SDS011;5663;50.864;12.096;2022-07-17T14:39:54;2.08;;;1.30;;
11211;SDS011;5663;50.864;12.096;2022-07-17T14:42:23;2.13;;;1.20;;
11211;SDS011;5663;50.864;12.096;2022-07-17T14:44:51;4.20;;;1.48;;
11211;SDS011;5663;50.864;12.096;2022-07-17T14:47:19;2.28;;;1.20;;
11211;SDS011;5663;50.864;12.096;2022-07-17T14:49:48;4.20;;;1.13;;
11211;SDS011;5663;50.864;12.096;2022-07-17T14:52:22;2.15;;;1.42;;
11211;SDS011;5663;50.864;12.096;2022-07-17T14:54:49;2.63;;;1.30;;
11211;SDS011;5663;50.864;12.096;2022-07-17T14:57:18;4.57;;;1.50;;
11211;SDS011;5663;50.864;12.096;2022-07-17T14:59:46;2.13;;;1.20;;
11211;SDS011;5663;50.864;12.096;2022-07-17T15:02:24;1.42;;;1.17;;
11211;SDS011;5663;50.864;12.096;2022-07-17T15:04:52;2.30;;;1.30;;
11211;SDS011;5663;50.864;12.096;2022-07-17T15:07:20;8.50;;;1.70;;
11211;SDS011;5663;50.864;12.096;2022-07-17T15:09:52;2.22;;;1.30;;
11211;SDS011;5663;50.864;12.096;2022-07-17T15:12:35;2.03;;;1.20;;
11211;SDS011;5663;50.864;12.096;2022-07-17T15:15:04;2.65;;;1.20;;
11211;SDS011;5663;50.864;12.096;2022-07-17T15:17:32;1.63;;;1.20;;
11211;SDS011;5663;50.864;12.096;2022-07-17T15:20:00;2.22;;;1.35;;
11211;SDS011;5663;50.864;12.096;2022-07-17T15:22:33;9.45;;;1.70;;
11211;SDS011;5663;50.864;12.096;2022-07-17T15:25:08;2.50;;;1.40;;
11211;SDS011;5663;50.864;12.096;2022-07-17T15:27:38;3.13;;;1.60;;
11211;SDS011;5663;50.864;12.096;2022-07-17T15:30:08;2.65;;;2.10;;
11211;SDS011;5663;50.864;12.096;2022-07-17T15:32:36;3.45;;;1.30;;
11211;SDS011;5663;50.864;12.096;2022-07-17T15:35:05;2.00;;;1.40;;
11211;SDS011;5663;50.864;12.096;2022-07-17T15:40:29;3.30;;;1.30;;
11211;SDS011;5663;50.864;12.096;2022-07-17T15:42:59;2.05;;;1.27;;
11211;SDS011;5663;50.864;12.096;2022-07-17T15:45:29;5.13;;;1.20;;
11211;SDS011;5663;50.864;12.096;2022-07-17T15:48:00;2.00;;;1.40;;
11211;SDS011;5663;50.864;12.096;2022-07-17T15:50:44;6.30;;;1.73;;
11211;SDS011;5663;50.864;12.096;2022-07-17T15:53:19;3.22;;;1.40;;
11211;SDS011;5663;50.864;12.096;2022-07-17T15:55:51;3.70;;;1.25;;
11211;SDS011;5663;50.864;12.096;2022-07-17T15:58:21;3.08;;;1.17;;
11211;SDS011;5663;50.864;12.096;2022-07-17T16:00:49;2.70;;;1.30;;
11211;SDS011;5663;50.864;12.096;2022-07-17T16:03:24;4.80;;;1.73;;
11211;SDS011;5663;50.864;12.096;2022-07-17T16:05:52;3.20;;;1.90;;
11211;SDS011;5663;50.864;12.096;2022-07-17T16:08:26;20.55;;;3.00;;
11211;SDS011;5663;50.864;12.096;2022-07-17T16:10:57;2.42;;;1.88;;
11211;SDS011;5663;50.864;12.096;2022-07-17T16:13:36;1.67;;;1.00;;
11211;SDS011;5663;50.864;12.096;2022-07-17T16:16:18;5.40;;;1.50;;
11211;SDS011;5663;50.864;12.096;2022-07-17T16:18:48;4.82;;;1.52;;
11211;SDS011;5663;50.864;12.096;2022-07-17T16:21:19;2.85;;;1.58;;
11211;SDS011;5663;50.864;12.096;2022-07-17T16:23:52;2.10;;;1.35;;
11211;SDS011;5663;50.864;12.096;2022-07-17T16:26:21;3.88;;;1.40;;
11211;SDS011;5663;50.864;12.096;2022-07-17T16:29:04;3.00;;;1.20;;
11211;SDS011;5663;50.864;12.096;2022-07-17T16:31:35;4.38;;;1.60;;
11211;SDS011;5663;50.864;12.096;2022-07-17T16:34:05;2.25;;;1.40;;
11211;SDS011;5663;50.864;12.096;2022-07-17T16:36:43;3.22;;;1.60;;
11211;SDS011;5663;50.864;12.096;2022-07-17T16:39:12;1.73;;;1.23;;
11211;SDS011;5663;50.864;12.096;2022-07-17T16:41:40;2.42;;;1.10;;
11211;SDS011;5663;50.864;12.096;2022-07-17T16:44:16;2.80;;;1.30;;
11211;SDS011;5663;50.864;12.096;2022-07-17T16:46:44;3.58;;;1.70;;
11211;SDS011;5663;50.864;12.096;2022-07-17T16:49:15;5.30;;;1.80;;
11211;SDS011;5663;50.864;12.096;2022-07-17T16:51:46;10.82;;;2.10;;
11211;SDS011;5663;50.864;12.096;2022-07-17T16:54:16;3.17;;;1.40;;
11211;SDS011;5663;50.864;12.096;2022-07-17T16:56:44;4.97;;;1.50;;
11211;SDS011;5663;50.864;12.096;2022-07-17T16:59:13;2.17;;;1.20;;
11211;SDS011;5663;50.864;12.096;2022-07-17T17:02:12;2.70;;;1.50;;
11211;SDS011;5663;50.864;12.096;2022-07-17T17:05:01;2.60;;;1.50;;
11211;SDS011;5663;50.864;12.096;2022-07-17T17:07:33;3.78;;;1.60;;
11211;SDS011;5663;50.864;12.096;2022-07-17T17:10:03;5.18;;;1.58;;
11211;SDS011;5663;50.864;12.096;2022-07-17T17:12:32;2.38;;;1.30;;
11211;SDS011;5663;50.864;12.096;2022-07-17T17:15:01;6.82;;;1.75;;
11211;SDS011;5663;50.864;12.096;2022-07-17T17:17:30;3.58;;;1.48;;
11211;SDS011;5663;50.864;12.096;2022-07-17T17:19:58;2.85;;;1.40;;
11211;SDS011;5663;50.864;12.096;2022-07-17T17:22:26;5.38;;;1.40;;
11211;SDS011;5663;50.864;12.096;2022-07-17T17:24:56;3.35;;;1.30;;
11211;SDS011;5663;50.864;12.096;2022-07-17T17:27:25;8.70;;;1.67;;
11211;SDS011;5663;50.864;12.096;2022-07-17T17:29:56;1.42;;;1.25;;
11211;SDS011;5663;50.864;12.096;2022-07-17T17:32:30;2.42;;;1.35;;
11211;SDS011;5663;50.864;12.096;2022-07-17T17:35:01;5.07;;;1.50;;
11211;SDS011;5663;50.864;12.096;2022-07-17T17:37:48;5.65;;;1.50;;
11211;SDS011;5663;50.864;12.096;2022-07-17T17:40:29;2.55;;;1.58;;
11211;SDS011;5663;50.864;12.096;2022-07-17T17:43:09;2.30;;;1.30;;
11211;SDS011;5663;50.864;12.096;2022-07-17T17:45:39;1.83;;;1.23;;
11211;SDS011;5663;50.864;12.096;2022-07-17T17:48:07;6.32;;;1.67;;
11211;SDS011;5663;50.864;12.096;2022-07-17T17:50:39;2.15;;;1.42;;
11211;SDS011;5663;50.864;12.096;2022-07-17T17:53:08;2.85;;;1.10;;
11211;SDS011;5663;50.864;12.096;2022-07-17T17:55:41;3.05;;;1.55;;
11211;SDS011;5663;50.864;12.096;2022-07-17T17:58:23;3.00;;;1.52;;
11211;SDS011;5663;50.864;12.096;2022-07-17T18:01:48;2.30;;;1.40;;
11211;SDS011;5663;50.864;12.096;2022-07-17T18:04:16;4.38;;;1.65;;
11211;SDS011;5663;50.864;12.096;2022-07-17T18:06:44;4.57;;;1.40;;
11211;SDS011;5663;50.864;12.096;2022-07-17T18:09:13;4.60;;;1.77;;
11211;SDS011;5663;50.864;12.096;2022-07-17T18:11:41;4.85;;;1.38;;
11211;SDS011;5663;50.864;12.096;2022-07-17T18:14:11;2.35;;;1.15;;
11211;SDS011;5663;50.864;12.096;2022-07-17T18:16:39;4.30;;;1.27;;
11211;SDS011;5663;50.864;12.096;2022-07-17T18:19:10;1.83;;;1.23;;
11211;SDS011;5663;50.864;12.096;2022-07-17T18:21:41;2.03;;;1.20;;
11211;SDS011;5663;50.864;12.096;2022-07-17T18:24:09;6.63;;;1.40;;
11211;SDS011;5663;50.864;12.096;2022-07-17T18:26:38;5.63;;;2.60;;
11211;SDS011;5663;50.864;12.096;2022-07-17T18:29:08;5.18;;;2.88;;
11211;SDS011;5663;50.864;12.096;2022-07-17T18:31:38;5.43;;;3.40;;
11211;SDS011;5663;50.864;12.096;2022-07-17T18:34:07;5.90;;;1.90;;
11211;SDS011;5663;50.864;12.096;2022-07-17T18:36:41;3.40;;;1.50;;
11211;SDS011;5663;50.864;12.096;2022-07-17T18:39:13;4.97;;;1.70;;
11211;SDS011;5663;50.864;12.096;2022-07-17T18:41:46;2.70;;;1.63;;
11211;SDS011;5663;50.864;12.096;2022-07-17T18:44:16;1.77;;;1.23;;
11211;SDS011;5663;50.864;12.096;2022-07-17T18:46:45;4.65;;;2.38;;
11211;SDS011;5663;50.864;12.096;2022-07-17T18:49:19;8.18;;;3.67;;
11211;SDS011;5663;50.864;12.096;2022-07-17T18:51:50;7.47;;;3.63;;
11211;SDS011;5663;50.864;12.096;2022-07-17T18:54:21;4.13;;;2.30;;
11211;SDS011;5663;50.864;12.096;2022-07-17T18:56:50;6.13;;;1.88;;
11211;SDS011;5663;50.864;12.096;2022-07-17T18:59:20;5.15;;;1.70;;
11211;SDS011;5663;50.864;12.096;2022-07-17T19:01:50;7.43;;;2.10;;
11211;SDS011;5663;50.864;12.096;2022-07-17T19:04:23;6.65;;;1.63;;
11211;SDS011;5663;50.864;12.096;2022-07-17T19:06:54;2.97;;;1.42;;
11211;SDS011;5663;50.864;12.096;2022-07-17T19:09:33;6.72;;;1.50;;
11211;SDS011;5663;50.864;12.096;2022-07-17T19:12:05;8.18;;;1.63;;
11211;SDS011;5663;50.864;12.096;2022-07-17T19:14:40;2.97;;;1.75;;
11211;SDS011;5663;50.864;12.096;2022-07-17T19:17:13;4.90;;;1.73;;
11211;SDS011;5663;50.864;12.096;2022-07-17T19:19:42;12.52;;;1.77;;
11211;SDS011;5663;50.864;12.096;2022-07-17T19:22:14;5.00;;;1.60;;
11211;SDS011;5663;50.864;12.096;2022-07-17T19:24:43;5.13;;;1.63;;
11211;SDS011;5663;50.864;12.096;2022-07-17T19:27:14;3.15;;;1.50;;
11211;SDS011;5663;50.864;12.096;2022-07-17T19:29:45;5.93;;;1.52;;
11211;SDS011;5663;50.864;12.096;2022-07-17T19:32:17;3.47;;;1.65;;